Погода Новая Дубрована 2 недели

Гродненская область, Белоруссия

20 июля-01 августа
  • 20июля
    Сегодня
    +13°
    +24°
    Ясно и безоблачно
    ВремяПогодаТемператураВлажностьДавлениеВетер, м/сВероятность осадков
    00:00Ясно и безоблачно+18°C65 %748 мм3.7 м/с2 %
    03:00Ясно и безоблачно+13°C85 %748 мм2.0 м/с2 %
    06:00Ясно и безоблачно+12°C91 %747 мм1.5 м/с2 %
    09:00Ясно и безоблачно+17°C72 %747 мм2.2 м/с2 %
    12:00Практически безоблачно+20°C59 %746 мм2.7 м/с2 %
    15:00Ясно и безоблачно+23°C49 %746 мм2.2 м/с2 %
    18:00Ясно и безоблачно+24°C48 %745 мм1.7 м/с2 %
    21:00Ясно и безоблачно+21°C70 %744 мм1.2 м/с2 %
  • 21июля
    Воскресенье
    +15°
    +27°
    Практически безоблачно
    ВремяПогодаТемператураВлажностьДавлениеВетер, м/сВероятность осадков
    00:00Облачно с прояснениями+16°C74 %744 мм2.0 м/с2 %
    03:00Облачно с прояснениями+16°C74 %743 мм2.5 м/с2 %
    06:00Небольшая облачность+15°C82 %743 мм1.9 м/с2 %
    09:00Практически безоблачно+20°C68 %744 мм1.5 м/с2 %
    12:00Практически безоблачно+24°C46 %743 мм1.3 м/с2 %
    15:00Практически безоблачно+25°C40 %743 мм1.7 м/с27 %
    18:00Небольшая облачность+26°C39 %742 мм0.9 м/с12 %
    21:00Небольшая облачность+23°C62 %742 мм0.6 м/с4 %
  • 22июля
    Понедельник
    +16°
    +28°
    Ясно и безоблачно
    ВремяПогодаТемператураВлажностьДавлениеВетер, м/сВероятность осадков
    00:00Практически безоблачно+18°C71 %742 мм1.7 м/с2 %
    03:00Ясно и безоблачно+15°C88 %742 мм1.3 м/с2 %
    06:00Ясно и безоблачно+15°C94 %742 мм1.0 м/с2 %
    09:00Ясно и безоблачно+20°C74 %743 мм2.0 м/с2 %
    12:00Ясно и безоблачно+24°C51 %743 мм2.4 м/с9 %
    15:00Ясно и безоблачно+26°C45 %744 мм2.5 м/с21 %
    18:00Ясно и безоблачно+26°C45 %744 мм2.4 м/с19 %
    21:00Ясно и безоблачно+23°C69 %744 мм2.1 м/с5 %
  • 23июля
    Вторник
    +16°
    +27°
    Небольшая облачность
    ВремяПогодаТемператураВлажностьДавлениеВетер, м/сВероятность осадков
    00:00Ясно и безоблачно+19°C78 %745 мм2.4 м/с2 %
    03:00Практически безоблачно+17°C84 %745 мм1.9 м/с2 %
    06:00Облачно с прояснениями+16°C92 %745 мм1.6 м/с3 %
    09:00Ясно и безоблачно+22°C69 %746 мм0.8 м/с7 %
    12:00Практически безоблачно+25°C53 %746 мм1.2 м/с19 %
    15:00Небольшая облачность+26°C48 %746 мм0.9 м/с33 %
    18:00Облачно с прояснениями+26°C45 %745 мм1.3 м/с36 %
    21:00Небольшая облачность+25°C64 %745 мм1.3 м/с27 %
Мы используем cookies
Соглашаюсь